AirNav   Get $300 off a Bose A20 Aviation Headset
 
 683 users online  

NJ92 St Benedict's Heliport
Newark, New Jersey, USA

GOING TO NEWARK?


FAA INFORMATION EFFECTIVE 12 SEPTEMBER 2019

Location

FAA Identifier: NJ92
Lat/Long: 40-44-09.3640N 074-10-37.5200W
40-44.156067N 074-10.625333W
40.7359344,-74.1770889
(estimated)
Elevation: 90 ft. / 27.4 m (surveyed)
Variation: 13W (1985)
Time zone: UTC -4 (UTC -5 during Standard Time)
Zip code: 07102

Heliport Operations

Heliport use: Private use. Permission required prior to landing
Activation date: 03/1991
Control tower: no
ARTCC: NEW YORK CENTER
FSS: MILLVILLE FLIGHT SERVICE STATION
Attendance: UNATNDD
Segmented circle: no

Heliport Communications

WX ASOS at EWR (2.6 nm S): PHONE 973-621-2892
WX AWOS-3 at LDJ (8 nm SW): 124.025 (908-862-7383)
WX AWOS-3PT at JRB (8 nm E): 128.175 (212-425-1534)
WX ASOS at TEB (9 nm NE): 132.025 (201-393-0855)
WX ASOS at CDW (10 nm NW): 135.5 (973-575-4417)
WX AWOS-3 at MMU (11 nm W): PHONE 973-290-0135
WX ASOS at LGA (14 nm E): PHONE 718-672-6317
WX ASOS at JFK (19 nm E): PHONE 718-656-0956

Nearby radio navigation aids

VOR radial/distance  VOR name  Freq  Var
TEBr229/8.5TETERBORO VOR/DME108.4011W
LGAr270/14.3LA GUARDIA VOR/DME113.1012W
CRIr311/14.8CANARSIE VOR/DME112.3011W
JFKr301/19.5KENNEDY VOR/DME115.9012W
COLr009/25.5COLTS NECK VOR/DME115.4011W
SAXr152/25.8SPARTA VORTAC115.7011W
SBJr080/27.3SOLBERG VOR/DME112.9010W
BWZr108/29.5BROADWAY VOR/DME114.2011W
STWr127/35.1STILLWATER VOR/DME109.6011W
RBVr034/35.1ROBBINSVILLE VORTAC113.8010W
DPKr277/39.8DEER PARK VOR/DME117.7012W

 
NDB name  Hdg/Dist  Freq  Var  ID
TORBY218/4.621412WTE - .
CHATHAM104/11.525413WCAT -.-. .- -
BABYLON290/36.327514WBBN -... -... -.

Heliport Services

Runway Information

Helipad H1

Dimensions: 75 x 75 ft. / 23 x 23 m
Surface: turf
Traffic pattern: leftleft

Heliport Ownership and Management from official FAA records

Ownership: Privately-owned
Owner: ST BENEDICT'S PREP SCHOOL
520 MARTIN LUTHER KING BLVD
NEWARK, NJ 07102
Phone 201-643-4800
Manager: PAB AVIATION
3405 AIRPORT ROAD
ALLENTOWN, PA 18103
Phone 201-938-4821

Additional Remarks

FOR CD CTC NEW YORK APCH AT 800-645-3206.

Instrument Procedures

There are no published instrument procedures at NJ92.

Some nearby airports with instrument procedures:

KEWR - Newark Liberty International Airport (3 nm S)
KLDJ - Linden Airport (8 nm SW)
KJRA - West 30th St Heliport (8 nm E)
KJRB - Downtown Manhattan/Wall Street Heliport (8 nm E)
KTEB - Teterboro Airport (9 nm NE)
6N5 - East 34th Street Heliport (9 nm E)
KCDW - Essex County Airport (10 nm NW)
KMMU - Morristown Municipal Airport (11 nm W)
KLGA - LaGuardia Airport (14 nm E)
N07 - Lincoln Park Airport (14 nm NW)
 
Loc | Ops | Rwys | IFR | FBO | Links
Com | Nav | Svcs | Stats | Notes
Area around NJ92 (St Benedict's Heliport)
 
Road maps at: MapQuest Bing Google
 
Aerial photo
No photo
 
Sectional chart

 
Airport distance calculator
Flying to St Benedict's Heliport? Find the distance to fly.

From to NJ92

Sunrise and sunset
Times for 15-Sep-2019
 Local
(UTC-4)
 Zulu
(UTC)
Morning civil twilight06:1110:11
Sunrise06:3810:38
Sunset19:0623:06
Evening civil twilight19:3323:33

Current date and time
Zulu (UTC)  16-Sep-2019 03:19:19
Local (UTC-4)  15-Sep-2019 23:19:19
 
METAR
KEWR 
3nm S 
160251Z 26006KT 10SM FEW180 SCT250 24/14 A3006 RMK AO2 SLP180 T02390139 58004
KLDJ 
8nm SW 
160255Z AUTO 00000KT 10SM CLR 22/14 A3007 RMK AO2 T02160140
KJRB 
8nm E 
160256Z AUTO 21004KT 10SM CLR 23/17 A3007 RMK AO2 SLP182 T02330167 58004
KTEB 
10nm NE 
160251Z 00000KT 10SM CLR 21/14 A3005 RMK AO2 SLP177 T02060139 58003
KNYC 
10nm E 
160251Z AUTO 00000KT 10SM CLR 22/13 A3009 RMK AO2 SLP182 T02220133 58003 $
KCDW 
10nm NW 
160253Z AUTO 00000KT 10SM CLR 19/16 A3008 RMK AO2 SLP190 T01940161 58002
KMMU 
11nm W 
160255Z AUTO 00000KT 10SM CLR 15/15 A3008 RMK AO2
KLGA 
14nm E 
160251Z 29004KT 10SM FEW180 SCT250 25/14 A3006 RMK AO2 SLP178 T02500139 57003
KJFK 
20nm E 
160251Z 22006KT 10SM SCT250 21/19 A3007 RMK AO2 SLP183 T02110194 58005
TAF
KEWR 
3nm S 
160227Z 1602/1706 VRB03KT P6SM BKN150 FM161000 32004KT P6SM BKN100 FM161200 34004KT P6SM BKN090 FM161400 35004KT P6SM BKN060 FM161900 06006KT P6SM BKN050 FM162100 09006KT P6SM BKN050 FM170200 03005KT P6SM BKN050
KTEB 
10nm NE 
160227Z 1602/1706 VRB03KT P6SM BKN150 FM161000 VRB03KT P6SM BKN100 FM161400 35004KT P6SM BKN060 FM161900 03004KT P6SM BKN040 FM170200 03003KT P6SM BKN040
KLGA 
14nm E 
160227Z 1602/1706 29004KT P6SM BKN150 FM160900 31004KT P6SM BKN100 FM161100 36004KT P6SM BKN090 FM161300 05007KT P6SM BKN060 FM161800 06008KT P6SM BKN050 FM162100 11006KT P6SM BKN050 FM170200 04005KT P6SM BKN050
KJFK 
20nm E 
160227Z 1602/1706 24004KT P6SM BKN150 FM160800 27004KT P6SM BKN100 FM161000 30004KT P6SM BKN100 FM161200 36004KT P6SM BKN090 FM161400 05006KT P6SM BKN060 FM161900 10007KT P6SM BKN050 FM162100 15007KT P6SM BKN050 FM170200 04005KT P6SM BKN050
NOTAMs
Click for the latest NOTAMs
NOTAMs are issued by the DoD/FAA and will open in a separate window not controlled by AirNav.

 

 
 

Would you like to see your business listed on this page?

 If your business provides an interesting product or service to pilots, flight crews, aircraft, or users of the St Benedict's Heliport, you should consider listing it here.  To start the listing process, click on the button below
 
Add a business
 

Other Pages about St Benedict's Heliport

Update a link
 
Copyright © AirNav, LLC. All rights reserved. Privacy Policy  Contact